Time;durP1;ratioP1;P1;durP2;ratioP2;P2;SDS_P1;SDS_P2;PMS_P1;PMS_P2;Temp;Humidity;BMP_temperature;BMP_pressure;BME280_temperature;BME280_humidity;BME280_pressure;Samples;Min_cycle;Max_cycle;Signal;HPM_P1;HPM_P2
2022/08/20 00:02:15;;;;;;;7.15;5.50;;;;;;;25.05;100.00;96212.25;5044864;28;20095;-59
2022/08/20 00:04:44;;;;;;;7.93;5.68;;;;;;;25.00;100.00;96212.97;5043777;28;20458;-59
2022/08/20 00:07:15;;;;;;;8.25;5.63;;;;;;;24.71;100.00;96208.63;5040328;28;20069;-57
2022/08/20 00:09:44;;;;;;;7.32;5.80;;;;;;;24.73;100.00;96209.22;5045101;28;20566;-61
2022/08/20 00:12:16;;;;;;;7.82;5.10;;;;;;;24.39;100.00;96204.47;5042274;28;20612;-59
2022/08/20 00:14:45;;;;;;;7.07;5.57;;;;;;;23.97;100.00;96200.34;5042844;28;20089;-59
2022/08/20 00:17:15;;;;;;;6.57;5.85;;;;;;;24.34;100.00;96209.78;5043879;28;20091;-57
2022/08/20 00:19:43;;;;;;;7.05;5.25;;;;;;;24.03;100.00;96204.78;5041777;28;20080;-55
2022/08/20 00:22:12;;;;;;;10.57;5.78;;;;;;;23.96;100.00;96204.09;5038892;28;20119;-55
2022/08/20 00:24:40;;;;;;;10.23;5.80;;;;;;;23.14;100.00;96204.81;5041575;28;20063;-60
2022/08/20 00:27:09;;;;;;;13.50;5.72;;;;;;;23.43;100.00;96205.78;5039079;28;20162;-53
2022/08/20 00:29:37;;;;;;;7.40;5.68;;;;;;;23.62;100.00;96211.91;5036364;28;20080;-62
2022/08/20 00:32:06;;;;;;;10.43;6.07;;;;;;;23.65;100.00;96209.56;5037573;28;20088;-60
2022/08/20 00:34:36;;;;;;;10.05;6.65;;;;;;;23.82;100.00;96211.59;5035160;28;20049;-52
2022/08/20 00:37:05;;;;;;;12.82;7.15;;;;;;;23.80;100.00;96224.47;5041755;28;20052;-57
2022/08/20 00:39:33;;;;;;;14.43;7.05;;;;;;;23.90;100.00;96208.53;5032700;28;20076;-55
2022/08/20 00:42:02;;;;;;;10.48;6.78;;;;;;;23.72;100.00;96222.13;5041154;28;20088;-57
2022/08/20 00:44:31;;;;;;;11.27;6.32;;;;;;;23.69;100.00;96220.72;5040244;28;20072;-61
2022/08/20 00:46:59;;;;;;;11.20;7.30;;;;;;;23.54;100.00;96228.41;5038256;28;20544;-54
2022/08/20 00:49:30;;;;;;;10.55;6.90;;;;;;;23.57;100.00;96228.78;5041180;28;20536;-52
2022/08/20 00:52:02;;;;;;;10.18;6.93;;;;;;;23.68;100.00;96229.88;5038271;28;20084;-61
2022/08/20 00:54:35;;;;;;;10.23;7.10;;;;;;;23.43;100.00;96224.63;5039458;28;20100;-57
2022/08/20 00:57:08;;;;;;;9.05;7.18;;;;;;;22.88;100.00;96220.25;5035226;28;20045;-55
2022/08/20 00:59:39;;;;;;;11.13;7.47;;;;;;;23.14;100.00;96221.75;5044904;28;20107;-60
2022/08/20 01:02:09;;;;;;;14.23;8.02;;;;;;;23.60;100.00;96214.81;5038477;28;20087;-61
2022/08/20 01:04:38;;;;;;;12.45;7.80;;;;;;;23.81;100.00;96210.78;5043780;28;20077;-58
2022/08/20 01:07:08;;;;;;;12.85;7.47;;;;;;;23.57;100.00;96233.31;5041573;28;20116;-57
2022/08/20 01:09:38;;;;;;;14.50;7.88;;;;;;;23.48;100.00;96229.34;5042396;28;20088;-55
2022/08/20 01:12:28;;;;;;;11.40;6.93;;;;;;;22.33;100.00;96308.16;5040109;28;20562;-55
2022/08/20 01:14:59;;;;;;;18.67;7.95;;;;;;;-146.19;100.00;58918.88;5040244;28;20087;-55
2022/08/20 01:17:31;;;;;;;14.02;7.05;;;;;;;-146.19;100.00;58918.88;5039090;28;20073;-56
2022/08/20 01:20:04;;;;;;;9.48;6.55;;;;;;;-146.19;100.00;58918.88;5036460;28;20077;-57
2022/08/20 01:25:30;;;;;;;11.43;7.60;;;;;;;28.54;100.00;96206.06;5032995;28;20546;-53
2022/08/20 01:28:01;;;;;;;10.90;7.47;;;;;;;27.28;100.00;96209.47;5036502;28;20041;-53
2022/08/20 01:30:32;;;;;;;10.63;7.20;;;;;;;26.22;100.00;96219.59;5040214;28;20448;-58
2022/08/20 01:33:01;;;;;;;18.80;7.45;;;;;;;25.87;100.00;96216.38;5039566;28;20115;-54
2022/08/20 01:35:30;;;;;;;15.07;8.27;;;;;;;26.07;100.00;96213.16;5037542;28;20065;-51
2022/08/20 01:37:58;;;;;;;13.80;8.27;;;;;;;26.12;100.00;96211.34;5045758;28;20073;-53
2022/08/20 01:40:40;;;;;;;14.55;8.90;;;;;;;25.94;100.00;96219.72;5042366;28;20528;-53
2022/08/20 01:43:11;;;;;;;10.82;8.43;;;;;;;25.54;100.00;96212.59;5036432;28;20543;-50
2022/08/20 01:45:41;;;;;;;11.43;7.72;;;;;;;25.61;100.00;96213.25;5043407;28;20095;-53
2022/08/20 01:48:10;;;;;;;10.60;8.25;;;;;;;25.59;100.00;96215.38;5033415;28;20053;-51
2022/08/20 01:50:43;;;;;;;15.77;9.25;;;;;;;25.92;100.00;96216.47;5040231;28;20081;-51
2022/08/20 01:53:20;;;;;;;14.55;9.27;;;;;;;25.79;100.00;96214.88;5035136;28;20107;-54
2022/08/20 01:55:48;;;;;;;14.32;9.55;;;;;;;26.11;100.00;96201.59;5037642;28;20080;-56
2022/08/20 01:58:18;;;;;;;13.93;10.05;;;;;;;25.50;100.00;96212.28;5036247;28;20072;-57
2022/08/20 02:00:47;;;;;;;14.23;9.38;;;;;;;25.39;100.00;96210.44;5040588;28;20085;-52
2022/08/20 02:03:15;;;;;;;12.80;9.70;;;;;;;25.56;100.00;96205.06;5040271;28;20084;-53
2022/08/20 02:05:44;;;;;;;12.07;9.07;;;;;;;25.92;100.00;96208.34;5038834;28;20084;-53
2022/08/20 02:08:12;;;;;;;16.25;9.60;;;;;;;26.26;100.00;96212.63;5037475;28;20089;-48
2022/08/20 02:10:40;;;;;;;13.38;9.60;;;;;;;26.01;100.00;96217.66;5040384;28;20077;-48
2022/08/20 02:13:09;;;;;;;14.00;8.85;;;;;;;25.89;100.00;96216.94;5042255;28;20084;-58
2022/08/20 02:15:39;;;;;;;15.05;10.10;;;;;;;25.72;100.00;96216.94;5037003;28;20080;-56
2022/08/20 02:18:14;;;;;;;14.68;10.18;;;;;;;26.00;100.00;96213.31;5038878;28;20087;-56
2022/08/20 02:20:44;;;;;;;14.15;9.85;;;;;;;25.72;100.00;96225.03;5035203;28;20088;-58
2022/08/20 02:23:14;;;;;;;15.95;10.20;;;;;;;25.80;100.00;96227.34;5034741;28;20540;-53
2022/08/20 02:25:46;;;;;;;18.38;10.82;;;;;;;26.03;100.00;96216.34;5033865;28;20077;-57
2022/08/20 02:28:16;;;;;;;16.42;10.52;;;;;;;25.74;100.00;96222.88;5048042;28;20061;-51
2022/08/20 02:30:50;;;;;;;15.23;10.75;;;;;;;25.52;100.00;96220.94;5035349;28;20084;-57
2022/08/20 02:33:20;;;;;;;15.13;10.25;;;;;;;25.38;100.00;96214.22;5036212;28;20072;-58
2022/08/20 02:35:55;;;;;;;13.95;10.43;;;;;;;25.96;100.00;96207.59;5041628;28;20049;-54
2022/08/20 02:38:24;;;;;;;14.45;10.93;;;;;;;25.11;100.00;96205.91;5040647;28;20516;-50
2022/08/20 02:40:53;;;;;;;16.92;11.15;;;;;;;25.17;100.00;96226.53;5035619;28;20037;-50
2022/08/20 02:43:21;;;;;;;15.30;11.43;;;;;;;25.18;100.00;96219.25;5032148;28;20329;-57
2022/08/20 02:45:52;;;;;;;17.92;11.57;;;;;;;25.07;100.00;96218.22;5038013;28;20041;-51
2022/08/20 02:48:21;;;;;;;17.65;10.93;;;;;;;24.72;100.00;96221.09;5036121;28;20048;-54
2022/08/20 02:50:53;;;;;;;19.52;11.30;;;;;;;24.95;100.00;96221.00;5033308;28;20100;-56
2022/08/20 02:53:22;;;;;;;16.55;10.60;;;;;;;25.27;100.00;96225.91;5034235;28;20092;-52
2022/08/20 02:55:51;;;;;;;14.70;11.10;;;;;;;25.00;100.00;96222.97;5040001;28;20072;-49
2022/08/20 02:58:21;;;;;;;18.67;11.00;;;;;;;25.57;100.00;96223.72;5035366;28;20057;-52
2022/08/20 03:00:51;;;;;;;16.83;11.48;;;;;;;25.75;100.00;96227.25;5039288;28;20453;-47
2022/08/20 03:03:21;;;;;;;15.20;11.98;;;;;;;25.09;100.00;96224.22;5034908;28;20457;-48
2022/08/20 03:05:52;;;;;;;17.40;12.45;;;;;;;25.19;100.00;96231.69;5033313;28;20065;-52
2022/08/20 03:08:21;;;;;;;17.38;12.52;;;;;;;24.48;100.00;96220.34;5030859;28;20052;-53
2022/08/20 03:10:51;;;;;;;17.85;12.40;;;;;;;24.83;100.00;96221.03;5036168;28;20567;-56
2022/08/20 03:13:20;;;;;;;19.88;12.77;;;;;;;25.24;100.00;96212.91;5037857;28;20073;-53
2022/08/20 03:15:54;;;;;;;17.52;12.48;;;;;;;25.66;100.00;96220.59;5037718;28;20072;-50
2022/08/20 03:18:29;;;;;;;15.90;12.57;;;;;;;25.50;100.00;96217.69;5034989;28;20542;-55
2022/08/20 03:20:58;;;;;;;15.68;11.85;;;;;;;25.67;100.00;96220.38;5036256;28;20065;-55
2022/08/20 03:23:26;;;;;;;15.60;12.32;;;;;;;24.91;100.00;96222.50;5030728;28;20091;-50
2022/08/20 03:25:55;;;;;;;15.88;11.93;;;;;;;25.44;100.00;96215.94;5044571;28;20139;-56
2022/08/20 03:28:24;;;;;;;16.17;12.32;;;;;;;25.89;100.00;96223.16;5041281;28;20079;-53
2022/08/20 03:30:55;;;;;;;16.80;12.30;;;;;;;25.45;100.00;96220.28;5032091;28;20480;-55
2022/08/20 03:33:23;;;;;;;17.77;11.60;;;;;;;25.42;100.00;96218.06;5033627;28;20080;-57
2022/08/20 03:35:52;;;;;;;17.30;12.48;;;;;;;25.66;100.00;96213.31;5038941;28;20061;-52
2022/08/20 03:38:22;;;;;;;15.93;11.50;;;;;;;25.37;100.00;96223.38;5032570;28;20080;-55
2022/08/20 03:41:01;;;;;;;18.38;12.27;;;;;;;25.52;100.00;96225.50;5036868;28;20460;-53
2022/08/20 03:43:30;;;;;;;18.55;12.07;;;;;;;25.65;100.00;96221.69;5033536;28;20111;-51
2022/08/20 03:46:00;;;;;;;17.98;12.00;;;;;;;25.99;100.00;96226.03;5033846;28;20115;-50
2022/08/20 03:48:29;;;;;;;18.60;12.93;;;;;;;26.05;100.00;96235.03;5032461;28;20081;-55
2022/08/20 03:50:59;;;;;;;17.40;12.88;;;;;;;25.91;100.00;96236.41;5037465;28;20080;-54
2022/08/20 03:53:30;;;;;;;17.67;12.73;;;;;;;25.35;100.00;96239.00;5036148;28;20558;-52
2022/08/20 03:56:02;;;;;;;17.83;12.52;;;;;;;25.72;100.00;96243.94;5033864;28;20087;-51
2022/08/20 03:58:31;;;;;;;17.17;11.20;;;;;;;25.61;100.00;96234.84;5031986;28;20083;-52
2022/08/20 04:01:06;;;;;;;18.95;12.80;;;;;;;25.82;100.00;96246.03;5031175;28;20530;-50
2022/08/20 04:03:57;;;;;;;16.00;12.13;;;;;;;25.53;100.00;96248.75;5032195;28;20087;-56
2022/08/20 04:06:26;;;;;;;19.27;12.60;;;;;;;25.47;100.00;96253.25;5015752;28;20045;-54
2022/08/20 04:08:54;;;;;;;17.85;13.35;;;;;;;25.19;100.00;96253.28;5015439;28;20084;-50
2022/08/20 04:11:23;;;;;;;18.98;13.52;;;;;;;25.21;100.00;96251.97;5018266;28;20070;-52
2022/08/20 04:13:52;;;;;;;21.23;13.63;;;;;;;25.42;100.00;96255.03;5019039;28;20478;-50
2022/08/20 04:16:22;;;;;;;19.43;13.93;;;;;;;25.74;100.00;96250.75;5014064;28;20085;-50
2022/08/20 04:18:51;;;;;;;20.70;14.93;;;;;;;25.69;100.00;96247.13;5015988;28;20084;-52
2022/08/20 04:21:29;;;;;;;23.50;14.75;;;;;;;25.68;100.00;96251.72;5009615;28;20088;-56
2022/08/20 04:24:01;;;;;;;27.30;18.27;;;;;;;25.54;100.00;96253.09;5015978;28;20081;-52
2022/08/20 04:26:29;;;;;;;24.48;17.55;;;;;;;25.68;100.00;96254.41;5014358;28;20099;-55
2022/08/20 04:28:58;;;;;;;25.50;18.33;;;;;;;26.00;100.00;96259.25;5017701;28;20085;-53
2022/08/20 04:31:32;;;;;;;29.40;18.90;;;;;;;25.57;100.00;96252.63;5011831;28;20073;-57
2022/08/20 04:34:01;;;;;;;34.42;22.70;;;;;;;25.31;100.00;96254.06;5020280;28;20816;-54
2022/08/20 04:36:30;;;;;;;40.03;24.00;;;;;;;25.49;100.00;96244.91;5017939;28;20076;-55
2022/08/20 04:38:58;;;;;;;36.72;24.85;;;;;;;25.27;100.00;96258.31;5051462;28;20088;-54
2022/08/20 04:41:26;;;;;;;41.38;27.05;;;;;;;24.94;100.00;96254.41;5019278;28;20072;-53
2022/08/20 04:43:56;;;;;;;44.35;28.00;;;;;;;24.71;100.00;96267.97;5016386;28;20045;-54
2022/08/20 04:46:28;;;;;;;42.53;28.17;;;;;;;24.78;100.00;96265.97;5017151;28;20179;-54
2022/08/20 04:48:57;;;;;;;49.63;30.15;;;;;;;24.27;100.00;96262.19;5020457;28;20088;-52
2022/08/20 04:51:25;;;;;;;49.63;30.85;;;;;;;24.62;100.00;96264.84;5014511;28;20080;-53
2022/08/20 04:53:56;;;;;;;52.65;30.10;;;;;;;24.49;100.00;96265.91;5016026;28;20077;-52
2022/08/20 04:56:26;;;;;;;50.35;31.02;;;;;;;24.34;100.00;96263.69;5013913;28;20081;-53
2022/08/20 04:58:57;;;;;;;46.60;31.25;;;;;;;24.31;100.00;96266.84;5022449;28;20073;-53
2022/08/20 05:01:28;;;;;;;47.33;29.35;;;;;;;24.08;100.00;96281.16;5019214;28;20089;-49
2022/08/20 05:03:57;;;;;;;48.00;30.88;;;;;;;23.89;100.00;96268.84;5025996;28;20069;-56
2022/08/20 05:06:28;;;;;;;45.45;29.13;;;;;;;23.83;100.00;96273.28;5023898;28;20081;-50
2022/08/20 05:08:58;;;;;;;45.13;29.80;;;;;;;23.89;100.00;96283.16;5023504;28;20077;-52
2022/08/20 05:11:27;;;;;;;49.28;30.17;;;;;;;23.64;100.00;96282.47;5017623;28;20542;-57
2022/08/20 05:14:05;;;;;;;41.55;27.42;;;;;;;23.39;100.00;96283.47;5021333;28;20127;-51
2022/08/20 05:16:37;;;;;;;40.30;26.23;;;;;;;23.69;100.00;96288.03;5021386;28;20069;-51
2022/08/20 05:19:08;;;;;;;37.88;24.63;;;;;;;23.59;100.00;96291.25;5021613;28;20077;-54
2022/08/20 05:21:36;;;;;;;41.65;26.45;;;;;;;23.75;100.00;96294.38;5018278;28;20501;-53
2022/08/20 05:24:06;;;;;;;47.65;28.33;;;;;;;23.90;100.00;96302.81;5021737;28;20067;-51
2022/08/20 05:26:34;;;;;;;43.83;27.98;;;;;;;23.86;100.00;96297.06;5014425;28;20501;-54
2022/08/20 05:29:05;;;;;;;36.53;25.02;;;;;;;23.44;100.00;96307.84;5019465;28;20588;-49
2022/08/20 05:31:34;;;;;;;46.92;28.58;;;;;;;23.32;100.00;96312.34;5014448;28;20061;-49
2022/08/20 05:34:08;;;;;;;40.28;28.50;;;;;;;24.06;100.00;96309.41;5017999;28;20073;-54
2022/08/20 05:36:38;;;;;;;39.08;24.95;;;;;;;23.50;100.00;96318.72;5017231;28;20085;-51
2022/08/20 05:39:07;;;;;;;38.03;25.27;;;;;;;23.98;100.00;96309.72;5017479;28;20089;-50
2022/08/20 05:41:36;;;;;;;40.80;26.90;;;;;;;24.18;100.00;96310.19;5018308;28;20073;-48
2022/08/20 05:44:08;;;;;;;37.33;25.90;;;;;;;24.47;100.00;96307.66;5019670;28;20083;-50
2022/08/20 05:46:39;;;;;;;37.08;25.48;;;;;;;23.65;100.00;96305.69;5014141;28;20078;-53
2022/08/20 05:49:10;;;;;;;35.38;25.42;;;;;;;24.32;100.00;96316.19;5017643;28;20066;-50
2022/08/20 05:51:39;;;;;;;37.85;25.92;;;;;;;24.62;100.00;96313.38;5012620;28;20096;-55
2022/08/20 05:54:08;;;;;;;30.85;23.23;;;;;;;24.33;100.00;96324.03;5017488;28;20523;-53
2022/08/20 05:56:37;;;;;;;37.40;24.90;;;;;;;25.04;100.00;96323.94;5020084;28;20077;-54
2022/08/20 05:59:06;;;;;;;33.65;23.33;;;;;;;24.47;100.00;96315.75;5023800;28;20463;-53
2022/08/20 06:01:37;;;;;;;34.97;24.13;;;;;;;24.23;100.00;96323.00;5022738;28;20176;-54
2022/08/20 06:04:25;;;;;;;33.53;23.55;;;;;;;24.38;100.00;96329.53;5016574;28;20085;-52
2022/08/20 06:07:02;;;;;;;31.10;23.58;;;;;;;24.73;100.00;96317.09;5020325;28;20078;-53
2022/08/20 06:09:30;;;;;;;29.30;22.40;;;;;;;24.76;100.00;96314.75;5020759;28;20076;-51
2022/08/20 06:12:01;;;;;;;30.43;23.40;;;;;;;24.81;100.00;96314.03;5023686;28;20076;-54
2022/08/20 06:14:30;;;;;;;30.23;23.52;;;;;;;24.48;100.00;96328.97;5023380;28;20530;-53
2022/08/20 06:17:04;;;;;;;31.10;23.30;;;;;;;24.61;100.00;96325.22;5016983;28;20053;-49
2022/08/20 06:19:33;;;;;;;31.65;22.80;;;;;;;24.60;100.00;96318.16;5016853;28;20085;-54
2022/08/20 06:22:04;;;;;;;30.77;22.55;;;;;;;24.13;100.00;96329.78;5020402;28;20072;-52
2022/08/20 06:24:48;;;;;;;32.42;23.20;;;;;;;24.56;100.00;96333.19;5023605;28;20065;-51
2022/08/20 06:27:17;;;;;;;30.73;22.67;;;;;;;24.52;100.00;96340.13;5019862;28;20093;-51
2022/08/20 06:29:46;;;;;;;32.78;22.80;;;;;;;24.41;100.00;96333.69;5027834;28;20069;-50
2022/08/20 06:32:14;;;;;;;32.70;22.90;;;;;;;24.10;100.00;96335.63;5027986;28;20077;-49
2022/08/20 06:34:43;;;;;;;34.95;24.02;;;;;;;24.33;100.00;96340.22;5025253;28;20420;-46
2022/08/20 06:37:22;;;;;;;31.27;22.27;;;;;;;24.26;100.00;96341.38;5026297;28;20484;-47
2022/08/20 06:40:01;;;;;;;36.60;22.00;;;;;;;24.14;100.00;96352.16;5025104;28;20076;-46
2022/08/20 06:42:29;;;;;;;29.77;22.92;;;;;;;24.04;100.00;96341.13;5026623;28;20471;-50
2022/08/20 06:44:59;;;;;;;30.02;22.23;;;;;;;24.05;100.00;96351.66;5020358;28;20160;-52
2022/08/20 06:47:28;;;;;;;30.65;22.23;;;;;;;24.25;100.00;96345.13;5020281;28;20080;-48
2022/08/20 06:49:56;;;;;;;32.70;22.58;;;;;;;24.75;100.00;96344.66;5019779;28;20516;-47
2022/08/20 06:52:26;;;;;;;30.10;20.75;;;;;;;24.19;100.00;96343.34;5023466;28;20069;-51
2022/08/20 06:55:16;;;;;;;31.63;20.53;;;;;;;24.21;100.00;96350.16;5021774;28;20073;-47
2022/08/20 06:57:46;;;;;;;29.48;21.85;;;;;;;24.28;100.00;96353.56;5018664;28;20745;-51
2022/08/20 07:00:16;;;;;;;29.13;21.50;;;;;;;23.90;100.00;96354.00;5021018;28;20088;-52
2022/08/20 07:02:45;;;;;;;28.40;21.13;;;;;;;23.93;100.00;96358.91;5021003;28;20547;-49
2022/08/20 07:05:14;;;;;;;28.65;21.02;;;;;;;24.39;100.00;96344.66;5029358;28;20073;-50
2022/08/20 07:07:48;;;;;;;31.05;21.45;;;;;;;23.33;100.00;96354.38;5016769;28;20037;-49
2022/08/20 07:10:17;;;;;;;27.67;20.85;;;;;;;24.17;100.00;96354.38;5018763;28;20546;-51
2022/08/20 07:12:49;;;;;;;28.35;20.10;;;;;;;23.69;100.00;96348.09;5025831;28;20065;-49
2022/08/20 07:15:19;;;;;;;30.27;21.17;;;;;;;24.04;100.00;96354.59;5021345;28;20081;-51
2022/08/20 07:17:51;;;;;;;24.77;18.70;;;;;;;24.32;100.00;96359.31;5022197;28;20511;-49
2022/08/20 07:20:24;;;;;;;25.00;18.77;;;;;;;24.38;100.00;96361.88;5037957;28;20081;-51
2022/08/20 07:22:53;;;;;;;24.85;19.55;;;;;;;24.42;100.00;96362.25;5027165;28;20463;-47
2022/08/20 07:25:23;;;;;;;26.35;19.75;;;;;;;24.39;100.00;96362.69;5019155;28;20083;-49
2022/08/20 07:27:51;;;;;;;25.23;19.33;;;;;;;24.69;100.00;96364.47;5019956;28;20092;-51
2022/08/20 07:33:25;;;;;;;25.35;17.90;;;;;;;24.76;100.00;96367.88;5025925;28;20605;-50
2022/08/20 07:35:56;;;;;;;24.50;17.23;;;;;;;24.72;100.00;96372.09;5025305;28;20140;-53
2022/08/20 07:38:27;;;;;;;24.75;17.45;;;;;;;24.43;100.00;96365.78;5018853;28;20080;-52
2022/08/20 07:40:57;;;;;;;22.50;17.17;;;;;;;24.87;100.00;96369.72;5018179;28;20073;-53
2022/08/20 07:43:27;;;;;;;22.02;17.58;;;;;;;25.28;100.00;96362.50;5018949;28;20076;-51
2022/08/20 07:45:59;;;;;;;21.98;17.38;;;;;;;25.38;100.00;96357.31;5018806;28;20093;-48
2022/08/20 07:48:29;;;;;;;23.17;18.00;;;;;;;25.41;100.00;96361.41;5020749;28;20127;-50
2022/08/20 07:51:01;;;;;;;21.80;17.10;;;;;;;25.25;100.00;96360.28;5017962;28;20081;-52
2022/08/20 07:53:32;;;;;;;;;;;;;;;25.61;100.00;96364.50;5014718;28;20081;-52
2022/08/20 07:56:05;;;;;;;20.67;16.70;;;;;;;25.05;100.00;96376.84;5017906;28;19963;-50
2022/08/20 07:58:34;;;;;;;;;;;;;;;25.07;100.00;96375.56;5031588;28;20080;-55
2022/08/20 08:01:02;;;;;;;19.08;15.07;;;;;;;25.15;100.00;96378.97;5032323;28;19967;-50
2022/08/20 08:03:31;;;;;;;19.73;15.93;;;;;;;25.52;100.00;96380.25;5032111;28;20081;-51
2022/08/20 08:06:18;;;;;;;21.00;15.85;;;;;;;25.22;100.00;96383.16;5032411;28;20085;-53
2022/08/20 08:09:00;;;;;;;19.92;15.32;;;;;;;24.82;100.00;96394.72;5026295;28;20069;-50
2022/08/20 08:11:29;;;;;;;16.60;13.80;;;;;;;24.86;100.00;96389.69;5029247;28;20069;-50
2022/08/20 08:13:59;;;;;;;19.17;14.88;;;;;;;24.91;100.00;96394.34;5032794;28;20502;-48
2022/08/20 08:16:29;;;;;;;17.50;14.73;;;;;;;24.99;100.00;96388.59;5032255;28;20095;-50
2022/08/20 08:19:00;;;;;;;14.85;12.70;;;;;;;24.29;100.00;96394.81;5021809;28;20142;-48
2022/08/20 08:21:30;;;;;;;19.67;14.93;;;;;;;24.25;100.00;96399.03;5029596;28;20535;-50
2022/08/20 08:24:01;;;;;;;17.73;14.45;;;;;;;24.26;100.00;96396.09;5028317;28;20080;-50
2022/08/20 08:26:29;;;;;;;18.52;14.80;;;;;;;24.47;100.00;96399.31;5032597;28;20085;-50
2022/08/20 08:28:58;;;;;;;18.33;14.63;;;;;;;24.56;100.00;96406.00;5032452;28;20089;-52
2022/08/20 08:31:26;;;;;;;16.88;14.88;;;;;;;24.43;100.00;96406.22;5030230;28;20093;-52
2022/08/20 08:33:55;;;;;;;18.85;14.57;;;;;;;24.71;100.00;96416.28;5032147;28;20061;-52
2022/08/20 08:36:26;;;;;;;19.73;14.82;;;;;;;24.97;100.00;96409.59;5026633;28;20092;-52
2022/08/20 08:38:55;;;;;;;17.58;14.35;;;;;;;24.56;100.00;96411.38;5029098;28;20628;-50
2022/08/20 08:41:30;;;;;;;18.88;14.77;;;;;;;24.37;100.00;96421.44;5031566;28;20456;-51
2022/08/20 08:44:06;;;;;;;16.50;14.52;;;;;;;24.63;100.00;96420.16;5032028;28;20076;-47
2022/08/20 08:46:39;;;;;;;19.48;15.05;;;;;;;23.95;100.00;96415.22;5032148;28;20087;-49
2022/08/20 08:49:10;;;;;;;19.85;15.60;;;;;;;24.34;100.00;96420.00;5025653;28;20111;-47
2022/08/20 08:51:43;;;;;;;19.30;14.77;;;;;;;24.79;100.00;96424.88;5025189;28;20077;-53
2022/08/20 08:54:15;;;;;;;19.67;15.05;;;;;;;24.81;100.00;96427.31;5031590;28;20471;-53
2022/08/20 08:56:45;;;;;;;17.15;14.13;;;;;;;24.48;100.00;96427.91;5032307;28;20076;-52
2022/08/20 08:59:19;;;;;;;16.05;14.02;;;;;;;24.14;100.00;96422.22;5031320;28;20073;-50
2022/08/20 09:01:50;;;;;;;18.13;15.23;;;;;;;24.20;100.00;96425.84;5031145;28;20064;-51
2022/08/20 09:04:29;;;;;;;18.73;14.45;;;;;;;24.27;100.00;96427.38;5031770;28;20080;-54
2022/08/20 09:06:57;;;;;;;17.30;14.60;;;;;;;24.72;100.00;96437.66;5030143;28;20073;-48
2022/08/20 09:09:30;;;;;;;17.65;14.90;;;;;;;25.13;100.00;96432.38;5028978;28;20523;-49
2022/08/20 09:12:04;;;;;;;18.20;15.43;;;;;;;24.86;100.00;96424.75;5031482;28;20088;-47
2022/08/20 09:14:32;;;;;;;17.92;14.65;;;;;;;24.31;100.00;96425.03;5026183;28;20080;-51
2022/08/20 09:17:01;;;;;;;17.10;14.32;;;;;;;25.00;100.00;96422.63;5031351;28;20172;-49
2022/08/20 09:19:30;;;;;;;17.13;14.13;;;;;;;24.58;100.00;96425.47;5029912;28;20088;-50
2022/08/20 09:21:59;;;;;;;19.30;15.65;;;;;;;25.27;100.00;96415.69;5025165;28;20081;-50
2022/08/20 09:24:27;;;;;;;18.73;15.30;;;;;;;24.85;100.00;96432.03;5025295;28;20514;-50
2022/08/20 09:26:55;;;;;;;20.77;15.40;;;;;;;25.39;100.00;96421.03;5031584;28;20089;-47
2022/08/20 09:29:25;;;;;;;19.98;15.30;;;;;;;25.19;100.00;96431.41;5030958;28;20535;-53
2022/08/20 09:32:04;;;;;;;18.50;15.20;;;;;;;25.20;100.00;96435.75;5028095;28;20077;-49
2022/08/20 09:34:36;;;;;;;20.45;14.45;;;;;;;25.80;100.00;96436.16;5029856;28;20087;-50
2022/08/20 09:37:04;;;;;;;20.27;15.18;;;;;;;25.60;100.00;96429.53;5030329;28;20483;-47
2022/08/20 09:39:32;;;;;;;20.25;15.45;;;;;;;25.06;100.00;96438.69;5030918;28;20073;-52
2022/08/20 09:42:08;;;;;;;18.48;14.93;;;;;;;24.78;100.00;96444.00;5030371;28;20061;-52
2022/08/20 09:44:38;;;;;;;17.02;14.82;;;;;;;25.38;100.00;96434.78;5019631;28;20164;-50
2022/08/20 09:47:07;;;;;;;16.83;14.25;;;;;;;25.96;100.00;96433.78;5017563;28;20093;-50
2022/08/20 09:49:36;;;;;;;17.27;14.38;;;;;;;25.91;100.00;96433.66;5011937;28;20124;-54
2022/08/20 09:52:07;;;;;;;17.50;14.23;;;;;;;25.82;100.00;96437.84;5015532;28;20081;-54
2022/08/20 09:54:36;;;;;;;18.23;15.27;;;;;;;25.58;100.00;96429.78;5020884;28;20093;-50
2022/08/20 09:57:06;;;;;;;18.23;14.27;;;;;;;25.77;100.00;96433.94;5023145;28;20084;-52
2022/08/20 09:59:36;;;;;;;16.67;14.10;;;;;;;25.16;100.00;96437.31;5014548;28;20084;-49
2022/08/20 10:02:05;;;;;;;15.23;13.57;;;;;;;25.53;100.00;96424.28;5013628;28;20081;-50
2022/08/20 10:04:34;;;;;;;15.55;13.70;;;;;;;25.39;100.00;96426.44;5016396;28;20078;-52
2022/08/20 10:07:07;;;;;;;16.23;13.80;;;;;;;25.42;100.00;96430.53;5017488;28;20081;-53
2022/08/20 10:09:35;;;;;;;15.30;13.70;;;;;;;25.98;100.00;96432.47;5015987;28;20069;-54
2022/08/20 10:12:04;;;;;;;17.85;14.40;;;;;;;25.40;100.00;96436.19;5019416;28;20088;-52
2022/08/20 10:14:32;;;;;;;16.90;13.27;;;;;;;25.47;100.00;96434.16;5019543;28;20069;-49
2022/08/20 10:17:01;;;;;;;16.80;14.05;;;;;;;25.43;100.00;96435.72;5017970;28;20552;-52
2022/08/20 10:19:32;;;;;;;16.95;14.55;;;;;;;26.33;100.00;96438.75;5014066;28;20076;-57
2022/08/20 10:22:00;;;;;;;17.50;14.55;;;;;;;26.80;100.00;96443.81;5014434;28;20081;-53
2022/08/20 10:24:29;;;;;;;16.02;14.18;;;;;;;26.63;100.00;96441.94;5016929;28;20096;-50
2022/08/20 10:26:59;;;;;;;16.23;14.52;;;;;;;26.77;100.00;96437.00;5014831;28;20068;-55
2022/08/20 10:29:28;;;;;;;17.05;14.43;;;;;;;27.07;100.00;96439.34;5017719;28;20198;-54
2022/08/20 10:31:56;;;;;;;15.50;13.77;;;;;;;26.20;100.00;96437.97;5021603;28;20081;-56
2022/08/20 10:34:25;;;;;;;18.27;14.65;;;;;;;25.60;100.00;96433.03;5019097;28;20088;-57
2022/08/20 10:36:55;;;;;;;16.52;14.82;;;;;;;26.74;100.00;96430.22;5018575;28;20495;-54
2022/08/20 10:39:24;;;;;;;17.25;14.60;;;;;;;26.88;100.00;96438.00;5017925;28;20060;-55
2022/08/20 10:41:52;;;;;;;16.92;14.55;;;;;;;27.45;100.00;96435.78;5020719;28;20077;-57
2022/08/20 10:44:20;;;;;;;16.45;14.57;;;;;;;27.25;100.00;96435.53;5019073;28;20083;-54
2022/08/20 10:46:49;;;;;;;16.10;14.43;;;;;;;26.96;100.00;96437.56;5021312;28;20127;-52
2022/08/20 10:49:24;;;;;;;16.35;14.50;;;;;;;27.02;100.00;96430.34;5018001;28;20065;-54
2022/08/20 10:51:52;;;;;;;16.63;14.38;;;;;;;26.66;100.00;96429.81;5017690;28;20077;-56
2022/08/20 10:54:22;;;;;;;15.38;13.82;;;;;;;26.60;100.00;96431.63;5020961;28;20514;-54
2022/08/20 10:56:50;;;;;;;16.80;14.20;;;;;;;26.97;100.00;96436.47;5017582;28;20100;-52
2022/08/20 10:59:19;;;;;;;14.88;13.25;;;;;;;27.54;100.00;96419.94;5017535;28;20077;-53
2022/08/20 11:01:47;;;;;;;15.82;14.13;;;;;;;27.57;100.00;96421.31;5010883;28;20062;-54
2022/08/20 11:04:16;;;;;;;15.80;14.05;;;;;;;26.90;100.00;96414.19;5019212;28;20467;-54
2022/08/20 11:06:44;;;;;;;16.92;14.88;;;;;;;26.80;100.00;96416.75;5016975;28;20065;-55
2022/08/20 11:09:12;;;;;;;16.17;14.45;;;;;;;28.04;100.00;96407.19;5014871;28;20462;-53
2022/08/20 11:11:42;;;;;;;15.57;13.98;;;;;;;28.19;100.00;96417.38;5013684;28;20530;-52
2022/08/20 11:14:10;;;;;;;16.60;14.90;;;;;;;28.20;100.00;96430.66;5012863;28;20927;-52
2022/08/20 11:16:39;;;;;;;17.60;15.80;;;;;;;27.10;100.00;96421.78;5018447;28;20069;-50
2022/08/20 11:19:07;;;;;;;16.98;14.82;;;;;;;27.69;100.00;96420.09;5018078;28;20073;-55
2022/08/20 11:21:36;;;;;;;17.35;15.55;;;;;;;28.16;100.00;96413.28;5016213;28;20069;-50
2022/08/20 11:24:04;;;;;;;16.40;14.68;;;;;;;28.17;100.00;96406.78;5019375;28;20077;-58
2022/08/20 11:26:33;;;;;;;16.92;15.23;;;;;;;27.92;100.00;96407.34;5010970;28;20085;-55
2022/08/20 11:29:02;;;;;;;17.92;15.45;;;;;;;28.03;100.00;96403.66;5019580;28;20107;-49
2022/08/20 11:31:31;;;;;;;18.67;16.50;;;;;;;28.25;100.00;96402.75;5023137;28;20074;-51
2022/08/20 11:33:59;;;;;;;17.42;15.30;;;;;;;28.37;100.00;96403.41;5020998;28;20175;-55